Maersk Nimes — VRFO7 — position and weather

sailwx.info

Track history (hours):
 
Tides and Currents Weather Stations Pressure Air Temp Water Temp Dewpoint Dewpoint Depression Visibility Wind Speed Wind Dir Waves Ship Positions

Maersk Nimes

Last reported at 2014-Jul-23 00:00 UTC. Time now 2014-Jul-23 05:22 UTC.
Position N 35°06' W 048°36'.

Length 210 m; draft 9.7 m.

Type: Cargo ship. MMSI: 477559200.

Wind from 230 at 20 knots

Waves 1.0 meters (3 feet), 5 second period

Barometer 1022.5 mb
Air temperature 27.0 ° C
Visibility: greater than 5.4 NM
Dewpoint 24.1 ° C

Date/timePositionNaut miles runAvg speedWind from/ knotsBaromVisibWave heightAir tempDewpointWater temp
2014-Jul-23 00:00N 35°06' W 048°36'39713.2 230 / 201022.5 5.4 1.027.024.1
2014-Jul-21 18:00N 39°06' W 042°00'57813.8 100 / 101025.0 5.4 0.523.021.5
2014-Jul-20 00:00N 44°06' W 031°00'16213.5 250 / 201020.0 5.4 1.020.018.418.0
2014-Jul-19 12:00N 45°18' W 027°36'8113.6 280 / 121016.0 5.4 0.525.020.418.0
2014-Jul-19 06:00N 45°48' W 025°48'6711.2 150 / 71014.0 5.4 15.015.0
2014-Jul-19 00:00N 46°12' W 024°18'7312.1 300 / 161015.010.8 0.516.012.418.0
2014-Jul-18 18:00N 46°42' W 022°42'10116.8 340 / 131012.0 5.4 1.019.013.8
2014-Jul-18 12:00N 47°18' W 020°24'9415.7 310 / 151009.0 5.4 0.520.014.918.0
2014-Jul-18 06:00N 47°48' W 018°12'34414.3 020 / 51007.0 5.4 0.517.015.3
2014-Jul-17 06:00N 49°12' W 009°48'29014.1 120 / 71020.0 5.4 1.017.015.3
2014-Jul-16 09:28N 50°05' W 002°28'1311.9
2014-Jul-16 08:24N 50°09' W 002°09'1011.6
2014-Jul-16 07:33N 50°12' W 001°55'1313.4
2014-Jul-16 06:33N 50°15' W 001°34'1515.1
2014-Jul-16 05:33N 50°18' W 001°11'1616.0
2014-Jul-16 04:33N 50°22' W 000°47'1514.9
2014-Jul-16 03:33N 50°26' W 000°24'1313.5
2014-Jul-16 02:34N 50°28' W 000°04'1312.1
2014-Jul-16 01:31N 50°31' E 000°16'1010.8
2014-Jul-16 00:34N 50°34' E 000°32'1010.0
2014-Jul-15 23:34N 50°39' E 000°45'1313.4
2014-Jul-15 22:33N 50°46' E 001°03'1817.8
2014-Jul-15 21:33N 50°59' E 001°23'1919.1
2014-Jul-15 20:33N 51°13' E 001°44'1716.7
2014-Jul-15 19:33N 51°25' E 002°02'1515.4
2014-Jul-15 18:33N 51°22' E 002°26'1414.3
2014-Jul-15 17:33N 51°22' E 002°49'1818.0
2014-Jul-15 16:33N 51°25' E 003°18'1414.4
2014-Jul-15 15:34N 51°26' E 003°41'9 8.7
2014-Jul-15 14:33N 51°21' E 003°52'7 7.0
2014-Jul-15 13:34N 51°25' E 004°02'7 7.4
2014-Jul-15 12:34N 51°22' E 004°13'5 4.4
2014-Jul-15 11:31N 51°18' E 004°16'0 0.0
2014-Jul-15 10:31N 51°18' E 004°16'0 0.0
2014-Jul-15 09:31N 51°18' E 004°16'0 0.0
2014-Jul-15 08:31N 51°18' E 004°16'0 0.0
2014-Jul-15 07:31N 51°18' E 004°16'0 0.0
2014-Jul-15 06:31N 51°18' E 004°16'0 0.0
2014-Jul-15 05:31N 51°18' E 004°16'0 0.0
2014-Jul-15 04:31N 51°18' E 004°16'0 0.0
2014-Jul-15 03:31N 51°18' E 004°16'0 0.0
2014-Jul-15 02:31N 51°18' E 004°16'0 0.0
2014-Jul-15 01:31N 51°18' E 004°16'0 0.0
2014-Jul-15 00:31N 51°18' E 004°16'0 0.0
2014-Jul-14 23:31N 51°18' E 004°16'3 3.3
2014-Jul-14 22:34N 51°21' E 004°16'9 9.0
2014-Jul-14 21:34N 51°24' E 004°02'1010.4
2014-Jul-14 20:33N 51°22' E 003°46'9 9.5
2014-Jul-14 19:33N 51°25' E 003°31'1515.0
2014-Jul-14 18:33N 51°24' E 003°07'1111.5
2014-Jul-14 17:33N 51°35' E 003°09'1312.6
2014-Jul-14 16:32N 51°48' E 003°15'1211.8
2014-Jul-14 15:30N 51°59' E 003°20'18 9.4
2014-Jul-14 13:33N 52°03' E 003°49'1110.6
2014-Jul-14 12:33N 51°59' E 004°05'10 9.8
2014-Jul-14 11:33N 51°54' E 004°18'5 4.3
2014-Jul-14 10:29N 51°53' E 004°26'0 0.0
2014-Jul-14 09:32N 51°53' E 004°26'0 0.0
2014-Jul-14 08:32N 51°53' E 004°26'0 0.0
2014-Jul-14 07:32N 51°53' E 004°26'0 0.0
2014-Jul-14 06:32N 51°53' E 004°26'0 0.0
2014-Jul-14 05:32N 51°53' E 004°26'0 0.0
2014-Jul-14 04:32N 51°53' E 004°26'1 0.8
2014-Jul-14 03:34N 51°54' E 004°26'10 9.8
2014-Jul-14 02:34N 51°57' E 004°10'1312.9
2014-Jul-14 01:33N 52°01' E 003°50'7 6.5
2014-Jul-14 00:33N 52°07' E 003°47'1111.4
2014-Jul-13 23:33N 52°19' E 003°47'1211.8
2014-Jul-13 22:33N 52°31' E 003°51'1111.1
2014-Jul-13 21:34N 52°41' E 003°54'1211.9
2014-Jul-13 20:32N 52°53' E 003°59'1110.4
2014-Jul-13 19:30N 53°02' E 004°10'10 9.9
2014-Jul-13 18:31N 53°08' E 004°22'10 8.8
2014-Jul-13 17:23N 53°17' E 004°30'7 8.7
2014-Jul-13 16:33N 53°24' E 004°35'9 9.0
2014-Jul-13 15:34N 53°30' E 004°46'1111.0
2014-Jul-13 14:33N 53°34' E 005°03'1211.6
2014-Jul-13 13:34N 53°38' E 005°21'1111.4
2014-Jul-13 12:33N 53°42' E 005°39'1110.8
2014-Jul-13 11:34N 53°45' E 005°57'1010.2
2014-Jul-13 10:33N 53°47' E 006°14'9 9.4
2014-Jul-13 09:33N 53°51' E 006°29'9 9.0
2014-Jul-13 08:33N 53°53' E 006°43'9 9.0
2014-Jul-13 07:32N 53°55' E 006°58'10 9.4
2014-Jul-13 06:27N 53°57' E 007°15'1010.7
2014-Jul-13 05:33N 53°59' E 007°31'9 9.4
2014-Jul-13 04:33N 53°54' E 007°45'1212.5
2014-Jul-13 03:33N 53°50' E 008°05'1515.2
2014-Jul-13 02:33N 53°40' E 008°24'6 6.0
2014-Jul-13 01:32N 53°36' E 008°31'0 0.0
2014-Jul-13 00:32N 53°36' E 008°31'  
Track history (hours):
 
Tides and Currents Weather Stations Pressure Air Temp Water Temp Dewpoint Dewpoint Depression Visibility Wind Speed Wind Dir Waves Ship Positions

Maersk Nimes

Last reported at 2014-Jul-23 00:00 UTC. Time now 2014-Jul-23 05:22 UTC.
Position N 35°06' W 048°36'.

Length 210 m; draft 9.7 m.

Type: Cargo ship. MMSI: 477559200.

Wind from 230 at 20 knots

Waves 1.0 meters (3 feet), 5 second period

Barometer 1022.5 mb
Air temperature 27.0 ° C
Visibility: greater than 5.4 NM
Dewpoint 24.1 ° C

Date/timePositionNaut miles runAvg speedWind from/ knotsBaromVisibWave heightAir tempDewpointWater temp
2014-Jul-23 00:00N 35°06' W 048°36'39713.2 230 / 201022.5 5.4 1.027.024.1
2014-Jul-21 18:00N 39°06' W 042°00'57813.8 100 / 101025.0 5.4 0.523.021.5
2014-Jul-20 00:00N 44°06' W 031°00'16213.5 250 / 201020.0 5.4 1.020.018.418.0
2014-Jul-19 12:00N 45°18' W 027°36'8113.6 280 / 121016.0 5.4 0.525.020.418.0
2014-Jul-19 06:00N 45°48' W 025°48'6711.2 150 / 71014.0 5.4 15.015.0
2014-Jul-19 00:00N 46°12' W 024°18'7312.1 300 / 161015.010.8 0.516.012.418.0
2014-Jul-18 18:00N 46°42' W 022°42'10116.8 340 / 131012.0 5.4 1.019.013.8
2014-Jul-18 12:00N 47°18' W 020°24'9415.7 310 / 151009.0 5.4 0.520.014.918.0
2014-Jul-18 06:00N 47°48' W 018°12'34414.3 020 / 51007.0 5.4 0.517.015.3
2014-Jul-17 06:00N 49°12' W 009°48'29014.1 120 / 71020.0 5.4 1.017.015.3
2014-Jul-16 09:28N 50°05' W 002°28'1311.9
2014-Jul-16 08:24N 50°09' W 002°09'1011.6
2014-Jul-16 07:33N 50°12' W 001°55'1313.4
2014-Jul-16 06:33N 50°15' W 001°34'1515.1
2014-Jul-16 05:33N 50°18' W 001°11'1616.0
2014-Jul-16 04:33N 50°22' W 000°47'1514.9
2014-Jul-16 03:33N 50°26' W 000°24'1313.5
2014-Jul-16 02:34N 50°28' W 000°04'1312.1
2014-Jul-16 01:31N 50°31' E 000°16'1010.8
2014-Jul-16 00:34N 50°34' E 000°32'1010.0
2014-Jul-15 23:34N 50°39' E 000°45'1313.4
2014-Jul-15 22:33N 50°46' E 001°03'1817.8
2014-Jul-15 21:33N 50°59' E 001°23'1919.1
2014-Jul-15 20:33N 51°13' E 001°44'1716.7
2014-Jul-15 19:33N 51°25' E 002°02'1515.4
2014-Jul-15 18:33N 51°22' E 002°26'1414.3
2014-Jul-15 17:33N 51°22' E 002°49'1818.0
2014-Jul-15 16:33N 51°25' E 003°18'1414.4
2014-Jul-15 15:34N 51°26' E 003°41'9 8.7
2014-Jul-15 14:33N 51°21' E 003°52'7 7.0
2014-Jul-15 13:34N 51°25' E 004°02'7 7.4
2014-Jul-15 12:34N 51°22' E 004°13'5 4.4
2014-Jul-15 11:31N 51°18' E 004°16'0 0.0
2014-Jul-15 10:31N 51°18' E 004°16'0 0.0
2014-Jul-15 09:31N 51°18' E 004°16'0 0.0
2014-Jul-15 08:31N 51°18' E 004°16'0 0.0
2014-Jul-15 07:31N 51°18' E 004°16'0 0.0
2014-Jul-15 06:31N 51°18' E 004°16'0 0.0
2014-Jul-15 05:31N 51°18' E 004°16'0 0.0
2014-Jul-15 04:31N 51°18' E 004°16'0 0.0
2014-Jul-15 03:31N 51°18' E 004°16'0 0.0
2014-Jul-15 02:31N 51°18' E 004°16'0 0.0
2014-Jul-15 01:31N 51°18' E 004°16'0 0.0
2014-Jul-15 00:31N 51°18' E 004°16'0 0.0
2014-Jul-14 23:31N 51°18' E 004°16'3 3.3
2014-Jul-14 22:34N 51°21' E 004°16'9 9.0
2014-Jul-14 21:34N 51°24' E 004°02'1010.4
2014-Jul-14 20:33N 51°22' E 003°46'9 9.5
2014-Jul-14 19:33N 51°25' E 003°31'1515.0
2014-Jul-14 18:33N 51°24' E 003°07'1111.5
2014-Jul-14 17:33N 51°35' E 003°09'1312.6
2014-Jul-14 16:32N 51°48' E 003°15'1211.8
2014-Jul-14 15:30N 51°59' E 003°20'18 9.4
2014-Jul-14 13:33N 52°03' E 003°49'1110.6
2014-Jul-14 12:33N 51°59' E 004°05'10 9.8
2014-Jul-14 11:33N 51°54' E 004°18'5 4.3
2014-Jul-14 10:29N 51°53' E 004°26'0 0.0
2014-Jul-14 09:32N 51°53' E 004°26'0 0.0
2014-Jul-14 08:32N 51°53' E 004°26'0 0.0
2014-Jul-14 07:32N 51°53' E 004°26'0 0.0
2014-Jul-14 06:32N 51°53' E 004°26'0 0.0
2014-Jul-14 05:32N 51°53' E 004°26'0 0.0
2014-Jul-14 04:32N 51°53' E 004°26'1 0.8
2014-Jul-14 03:34N 51°54' E 004°26'10 9.8
2014-Jul-14 02:34N 51°57' E 004°10'1312.9
2014-Jul-14 01:33N 52°01' E 003°50'7 6.5
2014-Jul-14 00:33N 52°07' E 003°47'1111.4
2014-Jul-13 23:33N 52°19' E 003°47'1211.8
2014-Jul-13 22:33N 52°31' E 003°51'1111.1
2014-Jul-13 21:34N 52°41' E 003°54'1211.9
2014-Jul-13 20:32N 52°53' E 003°59'1110.4
2014-Jul-13 19:30N 53°02' E 004°10'10 9.9
2014-Jul-13 18:31N 53°08' E 004°22'10 8.8
2014-Jul-13 17:23N 53°17' E 004°30'7 8.7
2014-Jul-13 16:33N 53°24' E 004°35'9 9.0
2014-Jul-13 15:34N 53°30' E 004°46'1111.0
2014-Jul-13 14:33N 53°34' E 005°03'1211.6
2014-Jul-13 13:34N 53°38' E 005°21'1111.4
2014-Jul-13 12:33N 53°42' E 005°39'1110.8
2014-Jul-13 11:34N 53°45' E 005°57'1010.2
2014-Jul-13 10:33N 53°47' E 006°14'9 9.4
2014-Jul-13 09:33N 53°51' E 006°29'9 9.0
2014-Jul-13 08:33N 53°53' E 006°43'9 9.0
2014-Jul-13 07:32N 53°55' E 006°58'10 9.4
2014-Jul-13 06:27N 53°57' E 007°15'1010.7
2014-Jul-13 05:33N 53°59' E 007°31'9 9.4
2014-Jul-13 04:33N 53°54' E 007°45'1212.5
2014-Jul-13 03:33N 53°50' E 008°05'1515.2
2014-Jul-13 02:33N 53°40' E 008°24'6 6.0
2014-Jul-13 01:32N 53°36' E 008°31'0 0.0
2014-Jul-13 00:32N 53°36' E 008°31'  

Dump ship's entire track history